Terminal Aerodrome Forecast
Issued by NWS

Home | Current Version | Previous Version | Text Only | Print | Product List | Glossary On
Versions: 1 2 3 4 5 6 7 8 9 10 11 12 13 14 15 16
312
FTUS45 KTFX 091733
TAFGTF
TAF
KGTF 091733Z 0918/1018 06005KT P6SM OVC070
      TEMPO 0918/0920 3SM -SN OVC040
     FM100100 06005KT P6SM OVC040
     FM100500 36005KT 4SM -SN OVC030
     FM101100 02005KT 1SM -SN BKN005 OVC010
     FM101600 03006KT 5SM -SN OVC010=

USA.gov is the U.S. government's official web portal to all federal, state and local government web resources and services.